Terminal Aerodrome Forecast
Issued by NWS

Home | Current Version | Previous Version | Text Only | Print | Product List | Glossary On
Versions: 1 2 3 4 5 6 7 8 9 10 11 12 13
000
FTUS46 KSEW 282353 RRB
TAFCLM
TAF
KCLM 282353Z 2900/2924 VRB04KT P6SM BKN030
     FM290500 00000KT P6SM SCT060 BKN100
     FM291000 VRB04KT 5SM -RA BR BKN015 OVC040
     FM291800 28006KT P6SM -RA BKN025 OVC060=

USA.gov is the U.S. government's official web portal to all federal, state and local government web resources and services.